sensor_id;sensor_type;location;lat;lon;timestamp;noise_LAeq;noise_LA_min;noise_LA_max;noise_LA01;noise_LA95
64079;Laerm;51042;49.696;10.808;2023-04-15T00:01:45;42.62;39.84;47.88;;
64079;Laerm;51042;49.696;10.808;2023-04-15T00:04:11;43.59;40.50;52.23;;
64079;Laerm;51042;49.696;10.808;2023-04-15T00:06:36;42.83;40.36;51.94;;
64079;Laerm;51042;49.696;10.808;2023-04-15T00:09:03;42.71;40.14;52.91;;
64079;Laerm;51042;49.696;10.808;2023-04-15T00:11:29;42.96;40.19;51.65;;
64079;Laerm;51042;49.696;10.808;2023-04-15T00:13:54;42.99;40.09;49.24;;
64079;Laerm;51042;49.696;10.808;2023-04-15T00:16:19;42.78;39.83;48.81;;
64079;Laerm;51042;49.696;10.808;2023-04-15T00:18:45;50.60;39.87;67.26;;
64079;Laerm;51042;49.696;10.808;2023-04-15T00:21:10;59.10;40.19;77.58;;
64079;Laerm;51042;49.696;10.808;2023-04-15T00:23:36;43.38;40.18;46.16;;
64079;Laerm;51042;49.696;10.808;2023-04-15T00:26:01;44.11;41.44;47.98;;
64079;Laerm;51042;49.696;10.808;2023-04-15T00:28:27;44.04;40.95;57.33;;
64079;Laerm;51042;49.696;10.808;2023-04-15T00:30:52;55.20;41.72;72.43;;
64079;Laerm;51042;49.696;10.808;2023-04-15T00:33:18;44.18;41.17;48.65;;
64079;Laerm;51042;49.696;10.808;2023-04-15T00:35:43;43.19;40.00;52.94;;
64079;Laerm;51042;49.696;10.808;2023-04-15T00:38:08;42.78;40.52;50.46;;
64079;Laerm;51042;49.696;10.808;2023-04-15T00:40:34;42.64;40.30;50.20;;
64079;Laerm;51042;49.696;10.808;2023-04-15T00:43:00;42.72;40.22;51.08;;
64079;Laerm;51042;49.696;10.808;2023-04-15T00:45:25;43.03;40.45;48.66;;
64079;Laerm;51042;49.696;10.808;2023-04-15T00:47:52;42.95;40.00;50.20;;
64079;Laerm;51042;49.696;10.808;2023-04-15T00:50:17;50.23;40.45;67.73;;
64079;Laerm;51042;49.696;10.808;2023-04-15T00:52:43;55.86;40.85;72.31;;
64079;Laerm;51042;49.696;10.808;2023-04-15T00:55:08;52.30;40.55;74.05;;
64079;Laerm;51042;49.696;10.808;2023-04-15T00:57:34;43.60;40.20;54.42;;
64079;Laerm;51042;49.696;10.808;2023-04-15T01:00:00;52.88;40.57;73.02;;
64079;Laerm;51042;49.696;10.808;2023-04-15T01:02:26;43.81;40.25;57.10;;
64079;Laerm;51042;49.696;10.808;2023-04-15T01:04:52;44.00;41.22;53.94;;
64079;Laerm;51042;49.696;10.808;2023-04-15T01:07:17;43.78;40.90;48.72;;
64079;Laerm;51042;49.696;10.808;2023-04-15T01:09:43;43.65;41.37;48.93;;
64079;Laerm;51042;49.696;10.808;2023-04-15T01:12:11;43.64;40.88;47.50;;
64079;Laerm;51042;49.696;10.808;2023-04-15T01:14:36;43.16;39.84;48.41;;
64079;Laerm;51042;49.696;10.808;2023-04-15T01:17:02;41.94;39.65;46.26;;
64079;Laerm;51042;49.696;10.808;2023-04-15T01:19:27;51.13;39.50;73.21;;
64079;Laerm;51042;49.696;10.808;2023-04-15T01:21:53;53.64;39.75;70.20;;
64079;Laerm;51042;49.696;10.808;2023-04-15T01:24:18;44.54;39.81;58.79;;
64079;Laerm;51042;49.696;10.808;2023-04-15T01:26:44;42.15;39.89;45.69;;
64079;Laerm;51042;49.696;10.808;2023-04-15T01:29:09;42.11;39.72;47.62;;
64079;Laerm;51042;49.696;10.808;2023-04-15T01:31:35;50.07;39.90;71.65;;
64079;Laerm;51042;49.696;10.808;2023-04-15T01:34:00;42.20;39.81;47.58;;
64079;Laerm;51042;49.696;10.808;2023-04-15T01:36:26;42.30;39.99;58.42;;
64079;Laerm;51042;49.696;10.808;2023-04-15T01:38:52;43.01;40.20;50.43;;
64079;Laerm;51042;49.696;10.808;2023-04-15T01:41:23;42.49;39.95;51.92;;
64079;Laerm;51042;49.696;10.808;2023-04-15T01:43:49;42.52;39.97;56.48;;
64079;Laerm;51042;49.696;10.808;2023-04-15T01:46:15;43.02;40.06;46.46;;
64079;Laerm;51042;49.696;10.808;2023-04-15T01:48:40;56.20;41.18;74.81;;
64079;Laerm;51042;49.696;10.808;2023-04-15T01:51:06;50.37;41.06;66.19;;
64079;Laerm;51042;49.696;10.808;2023-04-15T01:53:32;43.56;41.11;46.66;;
64079;Laerm;51042;49.696;10.808;2023-04-15T01:55:58;58.57;40.32;74.75;;
64079;Laerm;51042;49.696;10.808;2023-04-15T01:58:24;50.78;39.62;71.48;;
64079;Laerm;51042;49.696;10.808;2023-04-15T02:00:49;42.12;39.88;46.20;;
64079;Laerm;51042;49.696;10.808;2023-04-15T02:03:14;41.94;39.75;44.82;;
64079;Laerm;51042;49.696;10.808;2023-04-15T02:05:40;55.04;39.65;69.05;;
64079;Laerm;51042;49.696;10.808;2023-04-15T02:08:05;42.45;39.79;47.74;;
64079;Laerm;51042;49.696;10.808;2023-04-15T02:10:30;42.25;39.78;48.35;;
64079;Laerm;51042;49.696;10.808;2023-04-15T02:12:56;49.13;40.01;67.02;;
64079;Laerm;51042;49.696;10.808;2023-04-15T02:15:21;47.48;39.87;63.65;;
64079;Laerm;51042;49.696;10.808;2023-04-15T02:17:47;42.12;39.92;44.58;;
64079;Laerm;51042;49.696;10.808;2023-04-15T02:20:15;42.23;39.60;50.06;;
64079;Laerm;51042;49.696;10.808;2023-04-15T02:22:41;42.57;39.51;50.13;;
64079;Laerm;51042;49.696;10.808;2023-04-15T02:25:07;42.52;39.92;50.14;;
64079;Laerm;51042;49.696;10.808;2023-04-15T02:27:34;50.79;40.05;69.75;;
64079;Laerm;51042;49.696;10.808;2023-04-15T02:29:59;43.58;39.74;55.87;;
64079;Laerm;51042;49.696;10.808;2023-04-15T02:32:25;66.75;40.05;84.67;;
64079;Laerm;51042;49.696;10.808;2023-04-15T02:34:50;49.18;40.13;64.30;;
64079;Laerm;51042;49.696;10.808;2023-04-15T02:37:15;42.63;39.96;50.05;;
64079;Laerm;51042;49.696;10.808;2023-04-15T02:39:41;51.16;39.82;73.11;;
64079;Laerm;51042;49.696;10.808;2023-04-15T02:42:06;42.26;40.12;47.32;;
64079;Laerm;51042;49.696;10.808;2023-04-15T02:44:32;50.97;40.13;71.56;;
64079;Laerm;51042;49.696;10.808;2023-04-15T02:46:58;54.17;39.67;70.72;;
64079;Laerm;51042;49.696;10.808;2023-04-15T02:49:24;50.27;39.82;68.10;;
64079;Laerm;51042;49.696;10.808;2023-04-15T02:51:49;44.94;40.19;58.86;;
64079;Laerm;51042;49.696;10.808;2023-04-15T02:54:19;50.59;40.14;65.24;;
64079;Laerm;51042;49.696;10.808;2023-04-15T02:56:44;47.12;40.11;62.80;;
64079;Laerm;51042;49.696;10.808;2023-04-15T02:59:11;57.84;39.87;76.91;;
64079;Laerm;51042;49.696;10.808;2023-04-15T03:01:36;47.73;40.33;63.41;;
64079;Laerm;51042;49.696;10.808;2023-04-15T03:04:01;51.21;40.24;65.49;;
64079;Laerm;51042;49.696;10.808;2023-04-15T03:06:27;48.71;40.24;65.52;;
64079;Laerm;51042;49.696;10.808;2023-04-15T03:08:52;62.06;40.81;89.07;;
64079;Laerm;51042;49.696;10.808;2023-04-15T03:11:18;48.30;39.84;64.39;;
64079;Laerm;51042;49.696;10.808;2023-04-15T03:13:44;58.29;39.95;78.89;;
64079;Laerm;51042;49.696;10.808;2023-04-15T03:16:09;55.25;40.36;79.74;;
64079;Laerm;51042;49.696;10.808;2023-04-15T03:18:35;62.36;40.42;83.09;;
64079;Laerm;51042;49.696;10.808;2023-04-15T03:21:00;47.43;39.96;62.02;;
64079;Laerm;51042;49.696;10.808;2023-04-15T03:23:26;48.70;40.25;64.13;;
64079;Laerm;51042;49.696;10.808;2023-04-15T03:25:52;48.35;39.94;64.36;;
64079;Laerm;51042;49.696;10.808;2023-04-15T03:28:20;53.76;39.83;68.19;;
64079;Laerm;51042;49.696;10.808;2023-04-15T03:30:45;52.50;40.15;68.53;;
64079;Laerm;51042;49.696;10.808;2023-04-15T03:33:10;45.76;40.00;55.06;;
64079;Laerm;51042;49.696;10.808;2023-04-15T03:35:36;55.28;40.73;70.84;;
64079;Laerm;51042;49.696;10.808;2023-04-15T03:38:01;46.21;40.46;57.02;;
64079;Laerm;51042;49.696;10.808;2023-04-15T03:40:27;54.11;41.07;69.00;;
64079;Laerm;51042;49.696;10.808;2023-04-15T03:42:52;51.69;41.39;63.90;;
64079;Laerm;51042;49.696;10.808;2023-04-15T03:45:18;54.38;41.23;70.39;;
64079;Laerm;51042;49.696;10.808;2023-04-15T03:47:43;54.03;41.08;71.70;;
64079;Laerm;51042;49.696;10.808;2023-04-15T03:50:08;49.54;41.38;62.38;;
64079;Laerm;51042;49.696;10.808;2023-04-15T03:52:34;53.33;41.34;69.05;;
64079;Laerm;51042;49.696;10.808;2023-04-15T03:54:59;47.12;40.95;62.54;;
64079;Laerm;51042;49.696;10.808;2023-04-15T03:57:24;52.24;40.42;68.53;;
64079;Laerm;51042;49.696;10.808;2023-04-15T03:59:50;48.43;40.20;65.79;;
64079;Laerm;51042;49.696;10.808;2023-04-15T04:02:15;57.08;41.36;73.34;;
64079;Laerm;51042;49.696;10.808;2023-04-15T04:04:41;64.13;48.43;76.76;;
64079;Laerm;51042;49.696;10.808;2023-04-15T04:07:07;63.93;43.39;74.84;;
64079;Laerm;51042;49.696;10.808;2023-04-15T04:09:32;60.00;42.47;76.37;;
64079;Laerm;51042;49.696;10.808;2023-04-15T04:11:58;58.61;41.69;74.56;;
64079;Laerm;51042;49.696;10.808;2023-04-15T04:14:23;61.15;43.20;77.11;;
64079;Laerm;51042;49.696;10.808;2023-04-15T04:16:54;61.27;41.59;75.50;;
64079;Laerm;51042;49.696;10.808;2023-04-15T04:19:19;61.04;41.31;75.04;;
64079;Laerm;51042;49.696;10.808;2023-04-15T04:21:44;57.17;40.57;71.03;;
64079;Laerm;51042;49.696;10.808;2023-04-15T04:24:10;57.19;41.43;70.17;;
64079;Laerm;51042;49.696;10.808;2023-04-15T04:26:36;61.02;41.19;76.42;;
64079;Laerm;51042;49.696;10.808;2023-04-15T04:29:01;57.48;40.32;75.64;;
64079;Laerm;51042;49.696;10.808;2023-04-15T04:31:26;59.52;40.87;74.12;;
64079;Laerm;51042;49.696;10.808;2023-04-15T04:33:52;56.41;40.70;74.80;;
64079;Laerm;51042;49.696;10.808;2023-04-15T04:36:17;55.65;40.35;72.75;;
64079;Laerm;51042;49.696;10.808;2023-04-15T04:38:42;54.18;40.63;70.69;;
64079;Laerm;51042;49.696;10.808;2023-04-15T04:41:08;53.44;40.40;67.50;;
64079;Laerm;51042;49.696;10.808;2023-04-15T04:43:33;57.05;40.66;75.75;;
64079;Laerm;51042;49.696;10.808;2023-04-15T04:45:58;51.70;40.28;76.26;;
64079;Laerm;51042;49.696;10.808;2023-04-15T04:48:24;54.78;40.03;77.67;;
64079;Laerm;51042;49.696;10.808;2023-04-15T04:50:50;50.87;40.39;71.50;;
64079;Laerm;51042;49.696;10.808;2023-04-15T04:53:15;60.81;40.04;75.14;;
64079;Laerm;51042;49.696;10.808;2023-04-15T04:55:42;58.88;40.50;78.23;;
64079;Laerm;51042;49.696;10.808;2023-04-15T04:58:07;56.05;40.73;70.16;;
64079;Laerm;51042;49.696;10.808;2023-04-15T05:00:32;54.49;40.24;70.61;;
64079;Laerm;51042;49.696;10.808;2023-04-15T05:02:58;56.23;40.45;71.70;;
64079;Laerm;51042;49.696;10.808;2023-04-15T05:05:23;56.92;39.91;73.07;;
64079;Laerm;51042;49.696;10.808;2023-04-15T05:07:49;54.06;40.60;71.07;;
64079;Laerm;51042;49.696;10.808;2023-04-15T05:10:14;48.98;40.37;64.33;;
64079;Laerm;51042;49.696;10.808;2023-04-15T05:12:42;56.43;40.54;68.95;;
64079;Laerm;51042;49.696;10.808;2023-04-15T05:15:08;55.17;40.10;68.73;;
64079;Laerm;51042;49.696;10.808;2023-04-15T05:17:33;56.70;40.49;70.09;;
64079;Laerm;51042;49.696;10.808;2023-04-15T05:19:59;52.91;40.65;67.68;;
64079;Laerm;51042;49.696;10.808;2023-04-15T05:22:25;58.97;40.53;74.36;;
64079;Laerm;51042;49.696;10.808;2023-04-15T05:24:50;54.97;40.74;70.12;;
64079;Laerm;51042;49.696;10.808;2023-04-15T05:27:15;54.79;40.19;69.91;;
64079;Laerm;51042;49.696;10.808;2023-04-15T05:29:41;57.38;40.04;69.66;;
64079;Laerm;51042;49.696;10.808;2023-04-15T05:32:06;60.50;39.86;74.75;;
64079;Laerm;51042;49.696;10.808;2023-04-15T05:34:32;55.96;39.89;69.77;;
64079;Laerm;51042;49.696;10.808;2023-04-15T05:36:57;59.91;40.76;74.29;;
64079;Laerm;51042;49.696;10.808;2023-04-15T05:39:22;70.91;41.07;88.03;;
64079;Laerm;51042;49.696;10.808;2023-04-15T05:41:48;55.58;40.27;68.49;;
64079;Laerm;51042;49.696;10.808;2023-04-15T05:44:13;60.96;40.75;76.47;;
64079;Laerm;51042;49.696;10.808;2023-04-15T05:46:38;60.63;40.37;77.56;;
64079;Laerm;51042;49.696;10.808;2023-04-15T05:49:04;61.10;39.54;73.60;;
64079;Laerm;51042;49.696;10.808;2023-04-15T05:51:29;60.18;40.16;79.48;;
64079;Laerm;51042;49.696;10.808;2023-04-15T05:53:55;57.05;40.62;70.66;;
64079;Laerm;51042;49.696;10.808;2023-04-15T05:56:20;55.04;39.89;70.43;;
64079;Laerm;51042;49.696;10.808;2023-04-15T05:58:46;57.06;40.32;73.16;;
64079;Laerm;51042;49.696;10.808;2023-04-15T06:01:11;49.77;40.53;64.26;;
64079;Laerm;51042;49.696;10.808;2023-04-15T06:03:37;58.91;40.97;73.47;;
64079;Laerm;51042;49.696;10.808;2023-04-15T06:06:03;58.09;40.70;70.25;;
64079;Laerm;51042;49.696;10.808;2023-04-15T06:08:28;59.85;40.56;74.84;;
64079;Laerm;51042;49.696;10.808;2023-04-15T06:10:53;58.19;40.67;70.20;;
64079;Laerm;51042;49.696;10.808;2023-04-15T06:13:19;54.60;41.38;67.96;;
64079;Laerm;51042;49.696;10.808;2023-04-15T06:15:44;58.88;40.80;75.53;;
64079;Laerm;51042;49.696;10.808;2023-04-15T06:18:09;58.12;40.91;70.23;;
64079;Laerm;51042;49.696;10.808;2023-04-15T06:20:35;61.94;41.03;74.74;;
64079;Laerm;51042;49.696;10.808;2023-04-15T06:23:01;60.01;41.15;72.88;;
64079;Laerm;51042;49.696;10.808;2023-04-15T06:25:27;58.67;40.61;73.59;;
64079;Laerm;51042;49.696;10.808;2023-04-15T06:27:52;61.89;43.05;73.54;;
64079;Laerm;51042;49.696;10.808;2023-04-15T06:30:17;58.02;41.46;70.18;;
64079;Laerm;51042;49.696;10.808;2023-04-15T06:32:43;56.47;40.95;71.74;;
64079;Laerm;51042;49.696;10.808;2023-04-15T06:35:08;58.34;40.85;74.39;;
64079;Laerm;51042;49.696;10.808;2023-04-15T06:37:34;57.15;40.83;70.47;;
64079;Laerm;51042;49.696;10.808;2023-04-15T06:39:59;60.41;41.57;73.18;;
64079;Laerm;51042;49.696;10.808;2023-04-15T06:42:24;62.64;41.86;78.14;;
64079;Laerm;51042;49.696;10.808;2023-04-15T06:44:50;65.89;41.33;80.70;;
64079;Laerm;51042;49.696;10.808;2023-04-15T06:47:15;61.35;42.52;76.59;;
64079;Laerm;51042;49.696;10.808;2023-04-15T06:49:41;62.12;43.35;75.49;;
64079;Laerm;51042;49.696;10.808;2023-04-15T06:52:07;66.05;44.69;82.55;;
64079;Laerm;51042;49.696;10.808;2023-04-15T06:54:32;61.86;43.93;72.54;;
64079;Laerm;51042;49.696;10.808;2023-04-15T06:56:58;56.13;40.54;70.88;;
64079;Laerm;51042;49.696;10.808;2023-04-15T06:59:23;59.33;40.79;69.58;;
64079;Laerm;51042;49.696;10.808;2023-04-15T07:01:49;61.76;43.39;75.57;;
64079;Laerm;51042;49.696;10.808;2023-04-15T07:04:14;60.33;40.46;72.53;;
64079;Laerm;51042;49.696;10.808;2023-04-15T07:06:39;63.91;40.39;81.41;;
64079;Laerm;51042;49.696;10.808;2023-04-15T07:09:06;61.27;44.48;75.33;;
64079;Laerm;51042;49.696;10.808;2023-04-15T07:11:31;61.26;43.14;71.92;;
64079;Laerm;51042;49.696;10.808;2023-04-15T07:13:57;60.29;40.97;71.78;;
64079;Laerm;51042;49.696;10.808;2023-04-15T07:16:22;60.75;42.44;72.78;;
64079;Laerm;51042;49.696;10.808;2023-04-15T07:18:48;54.72;40.90;74.54;;
64079;Laerm;51042;49.696;10.808;2023-04-15T07:21:13;61.54;40.00;73.52;;
64079;Laerm;51042;49.696;10.808;2023-04-15T07:23:38;62.24;40.53;74.17;;
64079;Laerm;51042;49.696;10.808;2023-04-15T07:26:04;63.31;47.04;76.08;;
64079;Laerm;51042;49.696;10.808;2023-04-15T07:28:29;63.66;43.11;81.10;;
64079;Laerm;51042;49.696;10.808;2023-04-15T07:30:55;61.98;44.02;78.71;;
64079;Laerm;51042;49.696;10.808;2023-04-15T07:33:22;65.55;42.60;82.89;;
64079;Laerm;51042;49.696;10.808;2023-04-15T07:35:47;62.56;43.79;74.57;;
64079;Laerm;51042;49.696;10.808;2023-04-15T07:38:13;62.94;40.96;86.64;;
64079;Laerm;51042;49.696;10.808;2023-04-15T07:40:38;65.26;46.62;86.32;;
64079;Laerm;51042;49.696;10.808;2023-04-15T07:43:04;64.14;42.87;87.72;;
64079;Laerm;51042;49.696;10.808;2023-04-15T07:45:30;60.39;42.79;72.52;;
64079;Laerm;51042;49.696;10.808;2023-04-15T07:47:59;65.32;48.21;75.60;;
64079;Laerm;51042;49.696;10.808;2023-04-15T07:50:24;68.69;49.72;85.09;;
64079;Laerm;51042;49.696;10.808;2023-04-15T07:52:50;65.23;45.70;74.51;;
64079;Laerm;51042;49.696;10.808;2023-04-15T07:55:16;65.47;47.27;77.52;;
64079;Laerm;51042;49.696;10.808;2023-04-15T07:57:44;63.13;43.44;76.17;;
64079;Laerm;51042;49.696;10.808;2023-04-15T08:00:10;63.52;44.91;80.25;;
64079;Laerm;51042;49.696;10.808;2023-04-15T08:02:35;63.75;44.44;76.58;;
64079;Laerm;51042;49.696;10.808;2023-04-15T08:05:01;64.92;43.74;84.79;;
64079;Laerm;51042;49.696;10.808;2023-04-15T08:07:28;66.03;49.49;75.82;;
64079;Laerm;51042;49.696;10.808;2023-04-15T08:09:54;65.12;47.34;76.49;;
64079;Laerm;51042;49.696;10.808;2023-04-15T08:12:19;64.98;50.85;79.62;;
64079;Laerm;51042;49.696;10.808;2023-04-15T08:14:44;65.86;46.55;75.71;;
64079;Laerm;51042;49.696;10.808;2023-04-15T08:17:10;66.27;46.90;75.58;;
64079;Laerm;51042;49.696;10.808;2023-04-15T08:19:36;64.09;44.58;74.61;;
64079;Laerm;51042;49.696;10.808;2023-04-15T08:22:01;62.74;44.67;73.34;;
64079;Laerm;51042;49.696;10.808;2023-04-15T08:24:27;63.85;45.29;76.00;;
64079;Laerm;51042;49.696;10.808;2023-04-15T08:26:52;64.39;47.11;72.95;;
64079;Laerm;51042;49.696;10.808;2023-04-15T08:29:17;66.28;53.46;77.22;;
64079;Laerm;51042;49.696;10.808;2023-04-15T08:31:43;65.67;49.83;77.89;;
64079;Laerm;51042;49.696;10.808;2023-04-15T08:34:10;66.06;45.54;86.91;;
64079;Laerm;51042;49.696;10.808;2023-04-15T08:36:35;65.68;44.59;79.63;;
64079;Laerm;51042;49.696;10.808;2023-04-15T08:39:01;65.05;46.60;78.13;;
64079;Laerm;51042;49.696;10.808;2023-04-15T08:42:18;67.02;49.50;78.54;;
64079;Laerm;51042;49.696;10.808;2023-04-15T08:44:19;64.40;45.40;75.79;;
64079;Laerm;51042;49.696;10.808;2023-04-15T08:46:45;64.53;48.58;77.47;;
64079;Laerm;51042;49.696;10.808;2023-04-15T08:49:12;65.98;47.77;77.07;;
64079;Laerm;51042;49.696;10.808;2023-04-15T08:51:40;65.96;42.30;79.00;;
64079;Laerm;51042;49.696;10.808;2023-04-15T08:54:07;66.31;44.35;79.18;;
64079;Laerm;51042;49.696;10.808;2023-04-15T08:56:33;64.59;43.17;76.42;;
64079;Laerm;51042;49.696;10.808;2023-04-15T08:58:59;66.08;49.64;80.45;;
64079;Laerm;51042;49.696;10.808;2023-04-15T09:01:25;65.89;52.59;72.45;;
64079;Laerm;51042;49.696;10.808;2023-04-15T09:03:51;64.41;45.02;76.85;;
64079;Laerm;51042;49.696;10.808;2023-04-15T09:06:21;64.55;46.84;73.52;;
64079;Laerm;51042;49.696;10.808;2023-04-15T09:08:47;67.89;46.67;83.11;;
64079;Laerm;51042;49.696;10.808;2023-04-15T09:11:13;66.20;51.14;76.36;;
64079;Laerm;51042;49.696;10.808;2023-04-15T09:13:38;65.13;44.39;77.12;;
64079;Laerm;51042;49.696;10.808;2023-04-15T09:16:05;64.80;47.22;82.50;;
64079;Laerm;51042;49.696;10.808;2023-04-15T09:18:33;65.20;47.04;75.34;;
64079;Laerm;51042;49.696;10.808;2023-04-15T09:21:06;64.11;44.75;76.67;;
64079;Laerm;51042;49.696;10.808;2023-04-15T09:23:33;65.03;45.38;79.03;;
64079;Laerm;51042;49.696;10.808;2023-04-15T09:26:00;65.95;47.91;75.77;;
64079;Laerm;51042;49.696;10.808;2023-04-15T09:28:26;66.20;46.54;85.81;;
64079;Laerm;51042;49.696;10.808;2023-04-15T09:30:55;64.40;44.16;79.12;;
64079;Laerm;51042;49.696;10.808;2023-04-15T09:33:21;66.46;53.18;76.83;;
64079;Laerm;51042;49.696;10.808;2023-04-15T09:36:02;65.59;47.21;81.89;;
64079;Laerm;51042;49.696;10.808;2023-04-15T09:38:28;67.47;44.50;85.10;;
64079;Laerm;51042;49.696;10.808;2023-04-15T09:40:54;65.33;44.61;79.87;;
64079;Laerm;51042;49.696;10.808;2023-04-15T09:43:20;65.10;45.16;75.95;;
64079;Laerm;51042;49.696;10.808;2023-04-15T09:45:52;64.56;45.70;77.71;;
64079;Laerm;51042;49.696;10.808;2023-04-15T09:48:24;66.05;42.25;78.31;;
64079;Laerm;51042;49.696;10.808;2023-04-15T09:50:59;66.53;50.21;76.82;;
64079;Laerm;51042;49.696;10.808;2023-04-15T09:53:26;63.41;45.37;73.42;;
64079;Laerm;51042;49.696;10.808;2023-04-15T09:55:56;63.88;43.54;77.18;;
64079;Laerm;51042;49.696;10.808;2023-04-15T09:58:23;65.03;51.07;75.20;;
64079;Laerm;51042;49.696;10.808;2023-04-15T10:00:50;65.77;44.62;81.86;;
64079;Laerm;51042;49.696;10.808;2023-04-15T10:03:20;64.79;47.94;74.52;;
64079;Laerm;51042;49.696;10.808;2023-04-15T10:05:47;65.31;45.67;72.75;;
64079;Laerm;51042;49.696;10.808;2023-04-15T10:08:16;65.23;43.55;77.45;;
64079;Laerm;51042;49.696;10.808;2023-04-15T10:10:43;65.05;47.39;78.87;;
64079;Laerm;51042;49.696;10.808;2023-04-15T10:13:09;64.76;44.76;77.34;;
64079;Laerm;51042;49.696;10.808;2023-04-15T10:15:36;65.49;45.85;79.62;;
64079;Laerm;51042;49.696;10.808;2023-04-15T10:18:04;64.45;46.69;78.96;;
64079;Laerm;51042;49.696;10.808;2023-04-15T10:20:31;64.50;44.78;81.16;;
64079;Laerm;51042;49.696;10.808;2023-04-15T10:22:57;64.78;41.56;74.75;;
64079;Laerm;51042;49.696;10.808;2023-04-15T10:25:25;65.00;45.94;75.61;;
64079;Laerm;51042;49.696;10.808;2023-04-15T10:27:51;64.92;46.75;84.58;;
64079;Laerm;51042;49.696;10.808;2023-04-15T10:30:17;61.69;41.78;76.27;;
64079;Laerm;51042;49.696;10.808;2023-04-15T10:32:43;64.55;45.58;85.46;;
64079;Laerm;51042;49.696;10.808;2023-04-15T10:35:10;65.81;47.55;78.89;;
64079;Laerm;51042;49.696;10.808;2023-04-15T10:37:37;64.63;42.54;82.44;;
64079;Laerm;51042;49.696;10.808;2023-04-15T10:40:25;63.57;41.95;78.25;;
64079;Laerm;51042;49.696;10.808;2023-04-15T10:42:56;64.88;48.62;73.05;;
64079;Laerm;51042;49.696;10.808;2023-04-15T10:45:25;65.31;45.47;77.80;;
64079;Laerm;51042;49.696;10.808;2023-04-15T10:47:55;63.77;41.62;75.65;;
64079;Laerm;51042;49.696;10.808;2023-04-15T10:50:21;64.29;42.39;80.48;;
64079;Laerm;51042;49.696;10.808;2023-04-15T10:52:50;63.36;41.99;80.73;;
64079;Laerm;51042;49.696;10.808;2023-04-15T10:55:22;62.00;42.85;70.85;;
64079;Laerm;51042;49.696;10.808;2023-04-15T10:57:57;63.87;41.66;78.63;;
64079;Laerm;51042;49.696;10.808;2023-04-15T11:00:24;64.80;43.35;75.37;;
64079;Laerm;51042;49.696;10.808;2023-04-15T11:02:53;62.99;47.41;75.03;;
64079;Laerm;51042;49.696;10.808;2023-04-15T11:05:20;64.58;41.51;82.32;;
64079;Laerm;51042;49.696;10.808;2023-04-15T11:07:51;60.63;40.88;72.49;;
64079;Laerm;51042;49.696;10.808;2023-04-15T11:12:44;63.77;42.64;75.61;;
64079;Laerm;51042;49.696;10.808;2023-04-15T11:15:32;63.58;46.09;72.34;;
64079;Laerm;51042;49.696;10.808;2023-04-15T11:18:21;62.32;41.60;77.40;;
64079;Laerm;51042;49.696;10.808;2023-04-15T11:20:54;63.72;42.60;86.95;;
64079;Laerm;51042;49.696;10.808;2023-04-15T11:23:38;63.61;43.09;74.76;;
64079;Laerm;51042;49.696;10.808;2023-04-15T11:26:06;65.19;44.22;75.27;;
64079;Laerm;51042;49.696;10.808;2023-04-15T11:28:43;65.19;43.14;83.22;;
64079;Laerm;51042;49.696;10.808;2023-04-15T11:31:16;64.96;44.46;82.17;;
64079;Laerm;51042;49.696;10.808;2023-04-15T11:33:58;64.74;44.84;85.96;;
64079;Laerm;51042;49.696;10.808;2023-04-15T11:36:26;63.51;39.70;79.97;;
64079;Laerm;51042;49.696;10.808;2023-04-15T11:38:52;63.17;40.21;74.98;;
64079;Laerm;51042;49.696;10.808;2023-04-15T11:41:21;67.10;51.72;81.17;;
64079;Laerm;51042;49.696;10.808;2023-04-15T11:43:47;65.08;45.72;80.85;;
64079;Laerm;51042;49.696;10.808;2023-04-15T11:46:12;64.58;43.95;80.01;;
64079;Laerm;51042;49.696;10.808;2023-04-15T11:48:42;64.94;47.48;78.49;;
64079;Laerm;51042;49.696;10.808;2023-04-15T11:51:08;63.43;42.04;76.69;;
64079;Laerm;51042;49.696;10.808;2023-04-15T11:53:38;71.08;44.37;92.11;;
64079;Laerm;51042;49.696;10.808;2023-04-15T11:56:05;63.26;44.30;74.11;;
64079;Laerm;51042;49.696;10.808;2023-04-15T11:58:33;64.07;41.79;74.61;;
64079;Laerm;51042;49.696;10.808;2023-04-15T12:00:59;62.70;41.71;74.17;;
64079;Laerm;51042;49.696;10.808;2023-04-15T12:03:42;62.53;47.63;74.58;;
64079;Laerm;51042;49.696;10.808;2023-04-15T12:06:20;65.42;48.29;82.20;;
64079;Laerm;51042;49.696;10.808;2023-04-15T12:13:53;64.61;45.22;83.22;;
64079;Laerm;51042;49.696;10.808;2023-04-15T12:16:19;63.58;44.68;77.81;;
64079;Laerm;51042;49.696;10.808;2023-04-15T12:18:55;60.23;40.53;72.40;;
64079;Laerm;51042;49.696;10.808;2023-04-15T12:21:26;65.20;41.46;83.26;;
64079;Laerm;51042;49.696;10.808;2023-04-15T12:23:53;60.76;41.36;74.72;;
64079;Laerm;51042;49.696;10.808;2023-04-15T12:26:36;62.77;42.89;74.22;;
64079;Laerm;51042;49.696;10.808;2023-04-15T12:29:09;61.59;41.24;72.98;;
64079;Laerm;51042;49.696;10.808;2023-04-15T12:31:35;62.43;42.56;75.53;;
64079;Laerm;51042;49.696;10.808;2023-04-15T12:34:02;60.99;43.65;76.17;;
64079;Laerm;51042;49.696;10.808;2023-04-15T12:36:29;62.14;43.23;77.34;;
64079;Laerm;51042;49.696;10.808;2023-04-15T12:39:01;62.15;44.04;71.24;;
64079;Laerm;51042;49.696;10.808;2023-04-15T12:41:27;61.78;43.52;74.09;;
64079;Laerm;51042;49.696;10.808;2023-04-15T12:43:52;63.09;42.64;76.30;;
64079;Laerm;51042;49.696;10.808;2023-04-15T12:46:17;61.87;42.05;70.81;;
64079;Laerm;51042;49.696;10.808;2023-04-15T12:48:44;64.44;40.38;77.09;;
64079;Laerm;51042;49.696;10.808;2023-04-15T12:51:09;61.60;39.57;72.04;;
64079;Laerm;51042;49.696;10.808;2023-04-15T12:53:35;62.36;45.44;76.32;;
64079;Laerm;51042;49.696;10.808;2023-04-15T12:56:01;63.49;40.79;75.74;;
64079;Laerm;51042;49.696;10.808;2023-04-15T12:58:26;61.08;42.04;74.70;;
64079;Laerm;51042;49.696;10.808;2023-04-15T13:00:52;59.88;40.74;77.36;;
64079;Laerm;51042;49.696;10.808;2023-04-15T13:03:17;63.47;44.19;78.91;;
64079;Laerm;51042;49.696;10.808;2023-04-15T13:05:43;65.98;43.38;78.19;;
64079;Laerm;51042;49.696;10.808;2023-04-15T13:08:08;62.85;42.69;73.33;;
64079;Laerm;51042;49.696;10.808;2023-04-15T13:10:36;63.43;43.37;80.93;;
64079;Laerm;51042;49.696;10.808;2023-04-15T13:13:02;60.43;40.26;73.35;;
64079;Laerm;51042;49.696;10.808;2023-04-15T13:15:28;61.87;40.50;80.59;;
64079;Laerm;51042;49.696;10.808;2023-04-15T13:17:53;60.83;40.20;76.48;;
64079;Laerm;51042;49.696;10.808;2023-04-15T13:20:19;64.74;40.53;81.85;;
64079;Laerm;51042;49.696;10.808;2023-04-15T13:22:44;61.83;46.01;77.43;;
64079;Laerm;51042;49.696;10.808;2023-04-15T13:25:10;60.93;40.59;72.04;;
64079;Laerm;51042;49.696;10.808;2023-04-15T13:27:35;59.80;39.81;78.45;;
64079;Laerm;51042;49.696;10.808;2023-04-15T13:30:02;63.27;44.28;79.03;;
64079;Laerm;51042;49.696;10.808;2023-04-15T13:32:27;60.43;43.74;75.70;;
64079;Laerm;51042;49.696;10.808;2023-04-15T13:34:52;59.97;41.27;73.99;;
64079;Laerm;51042;49.696;10.808;2023-04-15T13:37:21;61.32;42.63;77.09;;